Indian Neck, Virginia
Current Conditions -  °F | °C
As of 8:15 AM on Sunday 23 Nov 2014 (Local Time) from KXSA Reporting Station
Clear Clear  
Wind Chill: 42°   Ceiling: Unl
Heat Index: 42°   Visibility: 10mi
Dew Point: 22°   Wind: 0mph
Humidity: 45%   Direction: NA
Pressure: 30.26"   Gusts: NA
Location:  37.8769°N, 77.0499°W
Report Text: KXSA 231315Z AUTO 00000KT 10SM CLR 05/M06 A3026 RMK AO2 T00531058
Loading
Personal Weather Stations






























Interactive Weather Map New forecast layout! Learn more

10-Day Weather Forecast

Advertisements
Track Severe Weather on mobile